sensor_id;sensor_type;location;lat;lon;timestamp;P1;durP1;ratioP1;P2;durP2;ratioP2
63112;SDS011;49206;48.020;21.378;2024-02-21T00:00:20;57.05;;;31.90;;
63112;SDS011;49206;48.020;21.378;2024-02-21T00:01:25;58.00;;;31.40;;
63112;SDS011;49206;48.020;21.378;2024-02-21T00:02:27;65.18;;;32.15;;
63112;SDS011;49206;48.020;21.378;2024-02-21T00:03:30;61.17;;;31.27;;
63112;SDS011;49206;48.020;21.378;2024-02-21T00:04:33;56.67;;;30.60;;
63112;SDS011;49206;48.020;21.378;2024-02-21T00:05:37;55.08;;;30.33;;
63112;SDS011;49206;48.020;21.378;2024-02-21T00:06:40;57.90;;;30.77;;
63112;SDS011;49206;48.020;21.378;2024-02-21T00:07:43;60.95;;;31.10;;
63112;SDS011;49206;48.020;21.378;2024-02-21T00:08:45;55.78;;;29.40;;
63112;SDS011;49206;48.020;21.378;2024-02-21T00:09:48;49.88;;;27.77;;
63112;SDS011;49206;48.020;21.378;2024-02-21T00:10:51;51.17;;;28.35;;
63112;SDS011;49206;48.020;21.378;2024-02-21T00:11:54;54.70;;;28.02;;
63112;SDS011;49206;48.020;21.378;2024-02-21T00:12:57;52.20;;;28.15;;
63112;SDS011;49206;48.020;21.378;2024-02-21T00:14:02;58.40;;;30.75;;
63112;SDS011;49206;48.020;21.378;2024-02-21T00:15:05;54.42;;;29.42;;
63112;SDS011;49206;48.020;21.378;2024-02-21T00:16:08;52.03;;;29.05;;
63112;SDS011;49206;48.020;21.378;2024-02-21T00:17:12;54.75;;;28.17;;
63112;SDS011;49206;48.020;21.378;2024-02-21T00:18:33;56.08;;;28.40;;
63112;SDS011;49206;48.020;21.378;2024-02-21T00:19:36;58.00;;;30.13;;
63112;SDS011;49206;48.020;21.378;2024-02-21T00:20:39;57.97;;;28.05;;
63112;SDS011;49206;48.020;21.378;2024-02-21T00:21:41;51.20;;;27.92;;
63112;SDS011;49206;48.020;21.378;2024-02-21T00:23:03;52.85;;;27.58;;
63112;SDS011;49206;48.020;21.378;2024-02-21T00:24:07;56.20;;;27.73;;
63112;SDS011;49206;48.020;21.378;2024-02-21T00:25:10;51.72;;;27.42;;
63112;SDS011;49206;48.020;21.378;2024-02-21T00:26:13;56.50;;;26.92;;
63112;SDS011;49206;48.020;21.378;2024-02-21T00:27:16;54.88;;;28.67;;
63112;SDS011;49206;48.020;21.378;2024-02-21T00:28:18;52.65;;;27.52;;
63112;SDS011;49206;48.020;21.378;2024-02-21T00:29:21;51.72;;;29.23;;
63112;SDS011;49206;48.020;21.378;2024-02-21T00:30:24;56.28;;;27.98;;
63112;SDS011;49206;48.020;21.378;2024-02-21T00:31:26;56.65;;;27.80;;
63112;SDS011;49206;48.020;21.378;2024-02-21T00:32:29;55.90;;;27.20;;
63112;SDS011;49206;48.020;21.378;2024-02-21T00:33:32;53.22;;;27.90;;
63112;SDS011;49206;48.020;21.378;2024-02-21T00:34:35;50.45;;;27.00;;
63112;SDS011;49206;48.020;21.378;2024-02-21T00:35:38;51.20;;;26.75;;
63112;SDS011;49206;48.020;21.378;2024-02-21T00:36:41;55.65;;;28.55;;
63112;SDS011;49206;48.020;21.378;2024-02-21T00:37:44;52.50;;;29.00;;
63112;SDS011;49206;48.020;21.378;2024-02-21T00:38:46;56.95;;;30.02;;
63112;SDS011;49206;48.020;21.378;2024-02-21T00:39:49;63.25;;;31.00;;
63112;SDS011;49206;48.020;21.378;2024-02-21T00:40:51;70.30;;;35.00;;
63112;SDS011;49206;48.020;21.378;2024-02-21T00:41:54;69.53;;;34.55;;
63112;SDS011;49206;48.020;21.378;2024-02-21T00:42:57;74.40;;;35.90;;
63112;SDS011;49206;48.020;21.378;2024-02-21T00:43:59;77.53;;;33.28;;
63112;SDS011;49206;48.020;21.378;2024-02-21T00:45:02;75.10;;;35.95;;
63112;SDS011;49206;48.020;21.378;2024-02-21T00:46:05;72.88;;;35.08;;
63112;SDS011;49206;48.020;21.378;2024-02-21T00:47:09;76.68;;;35.58;;
63112;SDS011;49206;48.020;21.378;2024-02-21T00:48:13;70.95;;;35.83;;
63112;SDS011;49206;48.020;21.378;2024-02-21T00:49:16;81.40;;;37.10;;
63112;SDS011;49206;48.020;21.378;2024-02-21T00:50:18;78.22;;;36.30;;
63112;SDS011;49206;48.020;21.378;2024-02-21T00:51:21;74.18;;;34.72;;
63112;SDS011;49206;48.020;21.378;2024-02-21T00:52:25;76.78;;;35.25;;
63112;SDS011;49206;48.020;21.378;2024-02-21T00:53:27;73.13;;;33.92;;
63112;SDS011;49206;48.020;21.378;2024-02-21T00:54:30;71.75;;;36.38;;
63112;SDS011;49206;48.020;21.378;2024-02-21T00:55:48;75.57;;;37.22;;
63112;SDS011;49206;48.020;21.378;2024-02-21T00:56:51;73.13;;;35.58;;
63112;SDS011;49206;48.020;21.378;2024-02-21T00:57:53;76.90;;;37.25;;
63112;SDS011;49206;48.020;21.378;2024-02-21T00:58:57;73.20;;;37.92;;
63112;SDS011;49206;48.020;21.378;2024-02-21T01:00:01;83.65;;;39.70;;
63112;SDS011;49206;48.020;21.378;2024-02-21T01:01:04;84.38;;;39.60;;
63112;SDS011;49206;48.020;21.378;2024-02-21T01:02:07;90.10;;;39.92;;
63112;SDS011;49206;48.020;21.378;2024-02-21T01:03:11;85.53;;;40.72;;
63112;SDS011;49206;48.020;21.378;2024-02-21T01:04:14;91.15;;;40.58;;
63112;SDS011;49206;48.020;21.378;2024-02-21T01:05:17;88.57;;;41.67;;
63112;SDS011;49206;48.020;21.378;2024-02-21T01:06:19;86.95;;;38.67;;
63112;SDS011;49206;48.020;21.378;2024-02-21T01:07:23;89.28;;;38.35;;
63112;SDS011;49206;48.020;21.378;2024-02-21T01:08:26;86.25;;;40.80;;
63112;SDS011;49206;48.020;21.378;2024-02-21T01:09:28;80.90;;;39.28;;
63112;SDS011;49206;48.020;21.378;2024-02-21T01:10:31;85.63;;;40.58;;
63112;SDS011;49206;48.020;21.378;2024-02-21T01:11:34;90.53;;;42.22;;
63112;SDS011;49206;48.020;21.378;2024-02-21T01:12:37;81.60;;;38.33;;
63112;SDS011;49206;48.020;21.378;2024-02-21T01:13:39;84.57;;;41.38;;
63112;SDS011;49206;48.020;21.378;2024-02-21T01:14:43;84.43;;;39.30;;
63112;SDS011;49206;48.020;21.378;2024-02-21T01:15:46;86.75;;;40.83;;
63112;SDS011;49206;48.020;21.378;2024-02-21T01:16:49;81.70;;;39.72;;
63112;SDS011;49206;48.020;21.378;2024-02-21T01:17:52;95.47;;;43.97;;
63112;SDS011;49206;48.020;21.378;2024-02-21T01:18:57;81.85;;;39.58;;
63112;SDS011;49206;48.020;21.378;2024-02-21T01:20:00;84.53;;;41.83;;
63112;SDS011;49206;48.020;21.378;2024-02-21T01:21:03;90.35;;;41.35;;
63112;SDS011;49206;48.020;21.378;2024-02-21T01:22:08;85.95;;;38.63;;
63112;SDS011;49206;48.020;21.378;2024-02-21T01:23:11;88.90;;;41.75;;
63112;SDS011;49206;48.020;21.378;2024-02-21T01:24:15;89.90;;;39.75;;
63112;SDS011;49206;48.020;21.378;2024-02-21T01:25:17;91.15;;;41.90;;
63112;SDS011;49206;48.020;21.378;2024-02-21T01:26:20;93.78;;;42.42;;
63112;SDS011;49206;48.020;21.378;2024-02-21T01:27:23;93.25;;;42.38;;
63112;SDS011;49206;48.020;21.378;2024-02-21T01:28:27;85.75;;;39.33;;
63112;SDS011;49206;48.020;21.378;2024-02-21T01:29:30;85.50;;;40.75;;
63112;SDS011;49206;48.020;21.378;2024-02-21T01:30:32;88.50;;;40.75;;
63112;SDS011;49206;48.020;21.378;2024-02-21T01:31:35;81.90;;;39.17;;
63112;SDS011;49206;48.020;21.378;2024-02-21T01:32:37;89.85;;;40.90;;
63112;SDS011;49206;48.020;21.378;2024-02-21T01:33:40;91.18;;;42.17;;
63112;SDS011;49206;48.020;21.378;2024-02-21T01:34:43;85.22;;;41.63;;
63112;SDS011;49206;48.020;21.378;2024-02-21T01:35:46;88.05;;;41.38;;
63112;SDS011;49206;48.020;21.378;2024-02-21T01:36:49;96.72;;;42.83;;
63112;SDS011;49206;48.020;21.378;2024-02-21T01:37:53;92.05;;;41.47;;
63112;SDS011;49206;48.020;21.378;2024-02-21T01:38:56;85.57;;;39.88;;
63112;SDS011;49206;48.020;21.378;2024-02-21T01:39:58;84.15;;;40.65;;
63112;SDS011;49206;48.020;21.378;2024-02-21T01:41:01;91.18;;;43.15;;
63112;SDS011;49206;48.020;21.378;2024-02-21T01:42:06;83.20;;;39.85;;
63112;SDS011;49206;48.020;21.378;2024-02-21T01:43:15;88.60;;;43.80;;
63112;SDS011;49206;48.020;21.378;2024-02-21T01:44:20;89.20;;;40.38;;
63112;SDS011;49206;48.020;21.378;2024-02-21T01:45:23;85.65;;;41.20;;
63112;SDS011;49206;48.020;21.378;2024-02-21T01:46:25;89.68;;;39.50;;
63112;SDS011;49206;48.020;21.378;2024-02-21T01:47:30;91.13;;;41.30;;
63112;SDS011;49206;48.020;21.378;2024-02-21T01:48:33;85.10;;;41.35;;
63112;SDS011;49206;48.020;21.378;2024-02-21T01:49:37;88.57;;;41.80;;
63112;SDS011;49206;48.020;21.378;2024-02-21T01:50:40;94.90;;;42.85;;
63112;SDS011;49206;48.020;21.378;2024-02-21T01:51:44;91.85;;;43.53;;
63112;SDS011;49206;48.020;21.378;2024-02-21T01:52:46;91.82;;;41.97;;
63112;SDS011;49206;48.020;21.378;2024-02-21T01:53:51;99.70;;;43.25;;
63112;SDS011;49206;48.020;21.378;2024-02-21T01:54:54;89.93;;;42.88;;
63112;SDS011;49206;48.020;21.378;2024-02-21T01:55:57;98.03;;;43.67;;
63112;SDS011;49206;48.020;21.378;2024-02-21T01:57:00;93.18;;;44.00;;
63112;SDS011;49206;48.020;21.378;2024-02-21T01:58:02;89.18;;;42.72;;
63112;SDS011;49206;48.020;21.378;2024-02-21T01:59:05;94.97;;;42.50;;
63112;SDS011;49206;48.020;21.378;2024-02-21T02:00:08;93.97;;;44.10;;
63112;SDS011;49206;48.020;21.378;2024-02-21T02:01:13;97.20;;;43.10;;
63112;SDS011;49206;48.020;21.378;2024-02-21T02:02:19;101.60;;;43.45;;
63112;SDS011;49206;48.020;21.378;2024-02-21T02:03:23;93.20;;;43.10;;
63112;SDS011;49206;48.020;21.378;2024-02-21T02:04:28;92.82;;;41.63;;
63112;SDS011;49206;48.020;21.378;2024-02-21T02:05:32;90.82;;;40.47;;
63112;SDS011;49206;48.020;21.378;2024-02-21T02:06:34;98.32;;;44.88;;
63112;SDS011;49206;48.020;21.378;2024-02-21T02:07:37;90.35;;;40.25;;
63112;SDS011;49206;48.020;21.378;2024-02-21T02:08:40;90.55;;;43.22;;
63112;SDS011;49206;48.020;21.378;2024-02-21T02:09:43;88.72;;;41.92;;
63112;SDS011;49206;48.020;21.378;2024-02-21T02:10:45;93.32;;;41.85;;
63112;SDS011;49206;48.020;21.378;2024-02-21T02:11:48;90.90;;;41.72;;
63112;SDS011;49206;48.020;21.378;2024-02-21T02:12:51;93.32;;;41.00;;
63112;SDS011;49206;48.020;21.378;2024-02-21T02:13:54;95.05;;;41.97;;
63112;SDS011;49206;48.020;21.378;2024-02-21T02:15:00;92.95;;;43.42;;
63112;SDS011;49206;48.020;21.378;2024-02-21T02:16:03;90.80;;;41.25;;
63112;SDS011;49206;48.020;21.378;2024-02-21T02:17:06;90.22;;;42.05;;
63112;SDS011;49206;48.020;21.378;2024-02-21T02:18:12;95.85;;;43.42;;
63112;SDS011;49206;48.020;21.378;2024-02-21T02:19:16;94.35;;;43.17;;
63112;SDS011;49206;48.020;21.378;2024-02-21T02:20:19;92.38;;;41.72;;
63112;SDS011;49206;48.020;21.378;2024-02-21T02:21:33;98.63;;;44.20;;
63112;SDS011;49206;48.020;21.378;2024-02-21T02:22:40;89.60;;;40.40;;
63112;SDS011;49206;48.020;21.378;2024-02-21T02:23:45;82.93;;;39.17;;
63112;SDS011;49206;48.020;21.378;2024-02-21T02:24:48;93.75;;;42.30;;
63112;SDS011;49206;48.020;21.378;2024-02-21T02:25:52;85.13;;;39.83;;
63112;SDS011;49206;48.020;21.378;2024-02-21T02:26:55;89.30;;;42.03;;
63112;SDS011;49206;48.020;21.378;2024-02-21T02:27:58;82.47;;;40.47;;
63112;SDS011;49206;48.020;21.378;2024-02-21T02:29:01;82.85;;;40.08;;
63112;SDS011;49206;48.020;21.378;2024-02-21T02:30:04;81.35;;;39.20;;
63112;SDS011;49206;48.020;21.378;2024-02-21T02:31:08;85.10;;;39.95;;
63112;SDS011;49206;48.020;21.378;2024-02-21T02:32:11;85.20;;;39.60;;
63112;SDS011;49206;48.020;21.378;2024-02-21T02:33:14;77.75;;;38.17;;
63112;SDS011;49206;48.020;21.378;2024-02-21T02:34:17;81.15;;;37.58;;
63112;SDS011;49206;48.020;21.378;2024-02-21T02:35:20;81.15;;;38.13;;
63112;SDS011;49206;48.020;21.378;2024-02-21T02:36:23;77.93;;;39.15;;
63112;SDS011;49206;48.020;21.378;2024-02-21T02:37:25;77.35;;;38.65;;
63112;SDS011;49206;48.020;21.378;2024-02-21T02:38:28;84.15;;;40.53;;
63112;SDS011;49206;48.020;21.378;2024-02-21T02:39:31;84.38;;;39.72;;
63112;SDS011;49206;48.020;21.378;2024-02-21T02:40:33;86.00;;;37.63;;
63112;SDS011;49206;48.020;21.378;2024-02-21T02:41:36;78.60;;;35.50;;
63112;SDS011;49206;48.020;21.378;2024-02-21T02:42:39;75.32;;;36.53;;
63112;SDS011;49206;48.020;21.378;2024-02-21T02:43:42;80.40;;;38.75;;
63112;SDS011;49206;48.020;21.378;2024-02-21T02:44:45;83.25;;;38.72;;
63112;SDS011;49206;48.020;21.378;2024-02-21T02:45:47;86.13;;;39.53;;
63112;SDS011;49206;48.020;21.378;2024-02-21T02:46:50;87.40;;;37.55;;
63112;SDS011;49206;48.020;21.378;2024-02-21T02:47:53;81.07;;;37.40;;
63112;SDS011;49206;48.020;21.378;2024-02-21T02:49:05;79.45;;;36.58;;
63112;SDS011;49206;48.020;21.378;2024-02-21T02:50:08;83.75;;;37.97;;
63112;SDS011;49206;48.020;21.378;2024-02-21T02:51:11;84.85;;;40.03;;
63112;SDS011;49206;48.020;21.378;2024-02-21T02:52:13;81.22;;;36.67;;
63112;SDS011;49206;48.020;21.378;2024-02-21T02:53:16;91.28;;;42.67;;
63112;SDS011;49206;48.020;21.378;2024-02-21T02:54:19;85.57;;;38.95;;
63112;SDS011;49206;48.020;21.378;2024-02-21T02:55:21;89.57;;;39.95;;
63112;SDS011;49206;48.020;21.378;2024-02-21T02:56:24;92.30;;;40.25;;
63112;SDS011;49206;48.020;21.378;2024-02-21T02:57:30;95.20;;;41.25;;
63112;SDS011;49206;48.020;21.378;2024-02-21T02:58:33;88.63;;;41.38;;
63112;SDS011;49206;48.020;21.378;2024-02-21T02:59:37;94.63;;;40.78;;
63112;SDS011;49206;48.020;21.378;2024-02-21T03:00:40;84.45;;;39.13;;
63112;SDS011;49206;48.020;21.378;2024-02-21T03:01:43;88.35;;;38.53;;
63112;SDS011;49206;48.020;21.378;2024-02-21T03:02:46;87.63;;;37.28;;
63112;SDS011;49206;48.020;21.378;2024-02-21T03:03:51;84.43;;;38.17;;
63112;SDS011;49206;48.020;21.378;2024-02-21T03:04:54;86.25;;;38.25;;
63112;SDS011;49206;48.020;21.378;2024-02-21T03:05:57;87.63;;;37.72;;
63112;SDS011;49206;48.020;21.378;2024-02-21T03:06:59;88.40;;;38.92;;
63112;SDS011;49206;48.020;21.378;2024-02-21T03:08:02;85.18;;;39.42;;
63112;SDS011;49206;48.020;21.378;2024-02-21T03:09:09;92.95;;;40.45;;
63112;SDS011;49206;48.020;21.378;2024-02-21T03:10:12;87.70;;;40.42;;
63112;SDS011;49206;48.020;21.378;2024-02-21T03:11:17;89.30;;;39.42;;
63112;SDS011;49206;48.020;21.378;2024-02-21T03:12:20;94.32;;;40.42;;
63112;SDS011;49206;48.020;21.378;2024-02-21T03:13:29;85.18;;;38.63;;
63112;SDS011;49206;48.020;21.378;2024-02-21T03:14:32;85.88;;;41.00;;
63112;SDS011;49206;48.020;21.378;2024-02-21T03:15:35;91.90;;;42.08;;
63112;SDS011;49206;48.020;21.378;2024-02-21T03:16:37;92.28;;;40.42;;
63112;SDS011;49206;48.020;21.378;2024-02-21T03:17:40;85.45;;;39.63;;
63112;SDS011;49206;48.020;21.378;2024-02-21T03:18:43;87.75;;;40.53;;
63112;SDS011;49206;48.020;21.378;2024-02-21T03:19:46;92.85;;;40.13;;
63112;SDS011;49206;48.020;21.378;2024-02-21T03:20:51;82.25;;;40.72;;
63112;SDS011;49206;48.020;21.378;2024-02-21T03:21:53;86.97;;;40.15;;
63112;SDS011;49206;48.020;21.378;2024-02-21T03:22:56;91.32;;;40.22;;
63112;SDS011;49206;48.020;21.378;2024-02-21T03:23:58;91.35;;;41.20;;
63112;SDS011;49206;48.020;21.378;2024-02-21T03:25:01;91.45;;;39.75;;
63112;SDS011;49206;48.020;21.378;2024-02-21T03:26:04;89.03;;;41.33;;
63112;SDS011;49206;48.020;21.378;2024-02-21T03:27:07;93.78;;;40.78;;
63112;SDS011;49206;48.020;21.378;2024-02-21T03:28:10;87.60;;;39.30;;
63112;SDS011;49206;48.020;21.378;2024-02-21T03:29:13;88.47;;;41.65;;
63112;SDS011;49206;48.020;21.378;2024-02-21T03:30:17;88.75;;;39.20;;
63112;SDS011;49206;48.020;21.378;2024-02-21T03:31:20;85.32;;;39.97;;
63112;SDS011;49206;48.020;21.378;2024-02-21T03:32:22;83.22;;;37.40;;
63112;SDS011;49206;48.020;21.378;2024-02-21T03:33:25;78.90;;;37.47;;
63112;SDS011;49206;48.020;21.378;2024-02-21T03:34:28;79.20;;;37.20;;
63112;SDS011;49206;48.020;21.378;2024-02-21T03:35:31;82.78;;;39.13;;
63112;SDS011;49206;48.020;21.378;2024-02-21T03:36:33;77.15;;;37.35;;
63112;SDS011;49206;48.020;21.378;2024-02-21T03:37:36;83.22;;;38.80;;
63112;SDS011;49206;48.020;21.378;2024-02-21T03:38:39;82.47;;;37.38;;
63112;SDS011;49206;48.020;21.378;2024-02-21T03:39:42;81.65;;;37.63;;
63112;SDS011;49206;48.020;21.378;2024-02-21T03:40:45;77.50;;;39.15;;
63112;SDS011;49206;48.020;21.378;2024-02-21T03:41:48;83.88;;;38.70;;
63112;SDS011;49206;48.020;21.378;2024-02-21T03:42:53;78.22;;;36.30;;
63112;SDS011;49206;48.020;21.378;2024-02-21T03:43:56;86.50;;;39.45;;
63112;SDS011;49206;48.020;21.378;2024-02-21T03:44:59;87.35;;;40.38;;
63112;SDS011;49206;48.020;21.378;2024-02-21T03:46:02;86.05;;;40.10;;
63112;SDS011;49206;48.020;21.378;2024-02-21T03:47:05;80.13;;;37.60;;
63112;SDS011;49206;48.020;21.378;2024-02-21T03:48:08;76.97;;;37.78;;
63112;SDS011;49206;48.020;21.378;2024-02-21T03:49:10;85.70;;;39.53;;
63112;SDS011;49206;48.020;21.378;2024-02-21T03:50:14;79.20;;;38.22;;
63112;SDS011;49206;48.020;21.378;2024-02-21T03:51:17;90.28;;;39.97;;
63112;SDS011;49206;48.020;21.378;2024-02-21T03:52:20;79.10;;;37.17;;
63112;SDS011;49206;48.020;21.378;2024-02-21T03:53:23;84.25;;;37.45;;
63112;SDS011;49206;48.020;21.378;2024-02-21T03:54:25;84.63;;;39.13;;
63112;SDS011;49206;48.020;21.378;2024-02-21T03:55:28;81.43;;;38.15;;
63112;SDS011;49206;48.020;21.378;2024-02-21T03:56:31;83.35;;;36.90;;
63112;SDS011;49206;48.020;21.378;2024-02-21T03:57:34;76.72;;;37.05;;
63112;SDS011;49206;48.020;21.378;2024-02-21T03:58:36;81.00;;;36.40;;
63112;SDS011;49206;48.020;21.378;2024-02-21T03:59:39;84.38;;;38.00;;
63112;SDS011;49206;48.020;21.378;2024-02-21T04:02:07;79.43;;;34.10;;
63112;SDS011;49206;48.020;21.378;2024-02-21T04:03:12;76.55;;;37.33;;
63112;SDS011;49206;48.020;21.378;2024-02-21T04:04:15;76.93;;;36.25;;
63112;SDS011;49206;48.020;21.378;2024-02-21T04:05:18;74.50;;;37.45;;
63112;SDS011;49206;48.020;21.378;2024-02-21T04:06:21;74.20;;;35.95;;
63112;SDS011;49206;48.020;21.378;2024-02-21T04:07:24;77.82;;;37.42;;
63112;SDS011;49206;48.020;21.378;2024-02-21T04:08:26;80.15;;;37.83;;
63112;SDS011;49206;48.020;21.378;2024-02-21T04:09:29;81.82;;;38.53;;
63112;SDS011;49206;48.020;21.378;2024-02-21T04:10:32;82.85;;;37.53;;
63112;SDS011;49206;48.020;21.378;2024-02-21T04:11:34;80.25;;;37.58;;
63112;SDS011;49206;48.020;21.378;2024-02-21T04:12:37;75.20;;;36.58;;
63112;SDS011;49206;48.020;21.378;2024-02-21T04:13:40;83.47;;;35.53;;
63112;SDS011;49206;48.020;21.378;2024-02-21T04:14:43;80.28;;;37.13;;
63112;SDS011;49206;48.020;21.378;2024-02-21T04:15:48;78.70;;;36.40;;
63112;SDS011;49206;48.020;21.378;2024-02-21T04:16:51;76.45;;;36.00;;
63112;SDS011;49206;48.020;21.378;2024-02-21T04:17:54;79.25;;;35.75;;
63112;SDS011;49206;48.020;21.378;2024-02-21T04:18:56;78.80;;;37.65;;
63112;SDS011;49206;48.020;21.378;2024-02-21T04:20:03;85.80;;;37.28;;
63112;SDS011;49206;48.020;21.378;2024-02-21T04:21:08;74.97;;;34.88;;
63112;SDS011;49206;48.020;21.378;2024-02-21T04:22:14;72.65;;;32.97;;
63112;SDS011;49206;48.020;21.378;2024-02-21T04:23:16;78.57;;;35.88;;
63112;SDS011;49206;48.020;21.378;2024-02-21T04:24:19;74.35;;;35.85;;
63112;SDS011;49206;48.020;21.378;2024-02-21T04:25:22;76.10;;;33.38;;
63112;SDS011;49206;48.020;21.378;2024-02-21T04:26:24;75.63;;;34.08;;
63112;SDS011;49206;48.020;21.378;2024-02-21T04:27:27;84.28;;;35.80;;
63112;SDS011;49206;48.020;21.378;2024-02-21T04:28:29;76.70;;;34.78;;
63112;SDS011;49206;48.020;21.378;2024-02-21T04:29:33;79.47;;;36.10;;
63112;SDS011;49206;48.020;21.378;2024-02-21T04:30:36;80.25;;;33.90;;
63112;SDS011;49206;48.020;21.378;2024-02-21T04:31:41;79.50;;;33.95;;
63112;SDS011;49206;48.020;21.378;2024-02-21T04:32:44;76.10;;;34.35;;
63112;SDS011;49206;48.020;21.378;2024-02-21T04:33:47;77.65;;;35.90;;
63112;SDS011;49206;48.020;21.378;2024-02-21T04:34:50;76.00;;;34.33;;
63112;SDS011;49206;48.020;21.378;2024-02-21T04:35:53;76.40;;;34.08;;
63112;SDS011;49206;48.020;21.378;2024-02-21T04:36:57;77.75;;;35.35;;
63112;SDS011;49206;48.020;21.378;2024-02-21T04:37:59;80.50;;;35.38;;
63112;SDS011;49206;48.020;21.378;2024-02-21T04:39:03;82.43;;;35.08;;
63112;SDS011;49206;48.020;21.378;2024-02-21T04:40:06;78.35;;;34.67;;
63112;SDS011;49206;48.020;21.378;2024-02-21T04:41:09;78.32;;;34.70;;
63112;SDS011;49206;48.020;21.378;2024-02-21T04:42:13;75.43;;;33.72;;
63112;SDS011;49206;48.020;21.378;2024-02-21T04:43:15;71.10;;;32.20;;
63112;SDS011;49206;48.020;21.378;2024-02-21T04:44:18;76.95;;;33.63;;
63112;SDS011;49206;48.020;21.378;2024-02-21T04:45:24;76.60;;;35.90;;
63112;SDS011;49206;48.020;21.378;2024-02-21T04:46:27;77.85;;;33.80;;
63112;SDS011;49206;48.020;21.378;2024-02-21T04:47:29;77.25;;;33.05;;
63112;SDS011;49206;48.020;21.378;2024-02-21T04:48:33;80.20;;;33.60;;
63112;SDS011;49206;48.020;21.378;2024-02-21T04:49:35;75.30;;;32.20;;
63112;SDS011;49206;48.020;21.378;2024-02-21T04:50:38;75.32;;;32.65;;
63112;SDS011;49206;48.020;21.378;2024-02-21T04:51:41;75.38;;;34.08;;
63112;SDS011;49206;48.020;21.378;2024-02-21T04:52:43;81.63;;;35.80;;
63112;SDS011;49206;48.020;21.378;2024-02-21T04:53:47;79.82;;;33.78;;
63112;SDS011;49206;48.020;21.378;2024-02-21T04:54:49;80.18;;;35.35;;
63112;SDS011;49206;48.020;21.378;2024-02-21T04:55:53;84.53;;;32.83;;
63112;SDS011;49206;48.020;21.378;2024-02-21T04:56:55;83.80;;;34.70;;
63112;SDS011;49206;48.020;21.378;2024-02-21T04:57:58;80.03;;;33.60;;
63112;SDS011;49206;48.020;21.378;2024-02-21T04:59:01;83.10;;;33.05;;
63112;SDS011;49206;48.020;21.378;2024-02-21T05:00:04;83.72;;;32.40;;
63112;SDS011;49206;48.020;21.378;2024-02-21T05:01:08;76.30;;;32.03;;
63112;SDS011;49206;48.020;21.378;2024-02-21T05:02:11;83.10;;;34.38;;
63112;SDS011;49206;48.020;21.378;2024-02-21T05:03:16;74.38;;;32.47;;
63112;SDS011;49206;48.020;21.378;2024-02-21T05:04:19;78.32;;;33.22;;
63112;SDS011;49206;48.020;21.378;2024-02-21T05:05:21;78.63;;;33.80;;
63112;SDS011;49206;48.020;21.378;2024-02-21T05:06:24;79.18;;;33.20;;
63112;SDS011;49206;48.020;21.378;2024-02-21T05:07:27;78.38;;;33.13;;
63112;SDS011;49206;48.020;21.378;2024-02-21T05:08:30;83.88;;;33.65;;
63112;SDS011;49206;48.020;21.378;2024-02-21T05:09:33;73.63;;;34.00;;
63112;SDS011;49206;48.020;21.378;2024-02-21T05:10:35;82.95;;;34.00;;
63112;SDS011;49206;48.020;21.378;2024-02-21T05:11:39;84.63;;;33.15;;
63112;SDS011;49206;48.020;21.378;2024-02-21T05:12:42;76.97;;;32.58;;
63112;SDS011;49206;48.020;21.378;2024-02-21T05:13:44;77.10;;;32.47;;
63112;SDS011;49206;48.020;21.378;2024-02-21T05:14:47;85.10;;;33.28;;
63112;SDS011;49206;48.020;21.378;2024-02-21T05:15:50;81.07;;;34.67;;
63112;SDS011;49206;48.020;21.378;2024-02-21T05:16:53;81.93;;;33.88;;
63112;SDS011;49206;48.020;21.378;2024-02-21T05:17:56;84.80;;;34.42;;
63112;SDS011;49206;48.020;21.378;2024-02-21T05:18:58;86.07;;;33.92;;
63112;SDS011;49206;48.020;21.378;2024-02-21T05:20:01;81.65;;;33.97;;
63112;SDS011;49206;48.020;21.378;2024-02-21T05:21:04;80.25;;;32.67;;
63112;SDS011;49206;48.020;21.378;2024-02-21T05:22:07;78.28;;;32.88;;
63112;SDS011;49206;48.020;21.378;2024-02-21T05:23:10;77.85;;;32.83;;
63112;SDS011;49206;48.020;21.378;2024-02-21T05:24:12;81.50;;;33.70;;
63112;SDS011;49206;48.020;21.378;2024-02-21T05:25:15;78.88;;;33.40;;
63112;SDS011;49206;48.020;21.378;2024-02-21T05:26:21;81.85;;;34.63;;
63112;SDS011;49206;48.020;21.378;2024-02-21T05:27:25;78.50;;;32.78;;
63112;SDS011;49206;48.020;21.378;2024-02-21T05:28:27;75.60;;;30.55;;
63112;SDS011;49206;48.020;21.378;2024-02-21T05:29:30;76.03;;;31.88;;
63112;SDS011;49206;48.020;21.378;2024-02-21T05:30:34;77.57;;;32.78;;
63112;SDS011;49206;48.020;21.378;2024-02-21T05:32:10;77.95;;;31.58;;
63112;SDS011;49206;48.020;21.378;2024-02-21T05:33:05;78.50;;;32.17;;
63112;SDS011;49206;48.020;21.378;2024-02-21T05:34:08;81.82;;;31.77;;
63112;SDS011;49206;48.020;21.378;2024-02-21T05:35:11;77.43;;;32.25;;
63112;SDS011;49206;48.020;21.378;2024-02-21T05:36:14;80.47;;;31.90;;
63112;SDS011;49206;48.020;21.378;2024-02-21T05:37:16;79.10;;;31.20;;
63112;SDS011;49206;48.020;21.378;2024-02-21T05:38:19;74.80;;;33.28;;
63112;SDS011;49206;48.020;21.378;2024-02-21T05:39:22;75.22;;;33.53;;
63112;SDS011;49206;48.020;21.378;2024-02-21T05:40:26;77.25;;;31.55;;
63112;SDS011;49206;48.020;21.378;2024-02-21T05:41:28;77.90;;;31.00;;
63112;SDS011;49206;48.020;21.378;2024-02-21T05:42:31;80.57;;;32.97;;
63112;SDS011;49206;48.020;21.378;2024-02-21T05:43:34;77.57;;;32.17;;
63112;SDS011;49206;48.020;21.378;2024-02-21T05:44:37;71.57;;;31.58;;
63112;SDS011;49206;48.020;21.378;2024-02-21T05:45:40;77.30;;;32.90;;
63112;SDS011;49206;48.020;21.378;2024-02-21T05:46:43;79.30;;;32.20;;
63112;SDS011;49206;48.020;21.378;2024-02-21T05:47:46;73.15;;;30.50;;
63112;SDS011;49206;48.020;21.378;2024-02-21T05:48:48;73.55;;;30.83;;
63112;SDS011;49206;48.020;21.378;2024-02-21T05:49:51;76.00;;;30.75;;
63112;SDS011;49206;48.020;21.378;2024-02-21T05:50:56;71.82;;;31.10;;
63112;SDS011;49206;48.020;21.378;2024-02-21T05:51:59;78.18;;;31.58;;
63112;SDS011;49206;48.020;21.378;2024-02-21T05:53:01;76.75;;;34.00;;
63112;SDS011;49206;48.020;21.378;2024-02-21T05:54:06;80.40;;;32.50;;
63112;SDS011;49206;48.020;21.378;2024-02-21T05:55:09;71.32;;;31.33;;
63112;SDS011;49206;48.020;21.378;2024-02-21T05:56:13;77.97;;;33.60;;
63112;SDS011;49206;48.020;21.378;2024-02-21T05:58:20;72.47;;;29.30;;
63112;SDS011;49206;48.020;21.378;2024-02-21T05:59:23;72.65;;;31.83;;
63112;SDS011;49206;48.020;21.378;2024-02-21T06:00:26;76.10;;;30.88;;
63112;SDS011;49206;48.020;21.378;2024-02-21T06:01:30;77.00;;;30.73;;
63112;SDS011;49206;48.020;21.378;2024-02-21T06:02:33;79.70;;;32.53;;
63112;SDS011;49206;48.020;21.378;2024-02-21T06:03:36;75.70;;;30.42;;
63112;SDS011;49206;48.020;21.378;2024-02-21T06:04:39;92.15;;;34.38;;
63112;SDS011;49206;48.020;21.378;2024-02-21T06:05:42;90.40;;;33.97;;
63112;SDS011;49206;48.020;21.378;2024-02-21T06:06:45;74.20;;;31.33;;
63112;SDS011;49206;48.020;21.378;2024-02-21T06:07:47;82.20;;;31.08;;